createdAt,value
2022-10-17T00:01:09.006Z,18.08
2022-10-17T00:03:39.030Z,17.88
2022-10-17T00:06:09.352Z,18.10
2022-10-17T00:08:40.718Z,18.00
2022-10-17T00:11:16.102Z,17.73
2022-10-17T00:13:44.321Z,17.88
2022-10-17T00:16:12.804Z,17.74
2022-10-17T00:18:41.061Z,17.20
2022-10-17T00:21:16.459Z,16.99
2022-10-17T00:23:46.325Z,16.83
2022-10-17T00:26:15.191Z,16.92
2022-10-17T00:28:43.652Z,17.04
2022-10-17T00:31:11.881Z,17.59
2022-10-17T00:33:40.300Z,17.76
2022-10-17T00:36:11.302Z,17.96
2022-10-17T00:38:39.603Z,17.94
2022-10-17T00:41:11.403Z,18.06
2022-10-17T00:43:57.355Z,17.85
2022-10-17T00:46:27.142Z,17.91
2022-10-17T00:48:57.065Z,17.91
2022-10-17T00:51:32.189Z,18.03
2022-10-17T00:54:00.862Z,17.78
2022-10-17T00:56:31.047Z,18.03
2022-10-17T00:58:59.420Z,17.93
2022-10-17T01:01:27.863Z,17.98
2022-10-17T01:03:56.133Z,17.99
2022-10-17T01:06:24.413Z,17.98
2022-10-17T01:08:52.795Z,17.79
2022-10-17T01:11:36.517Z,17.90
2022-10-17T01:14:08.680Z,17.80
2022-10-17T01:16:48.957Z,17.32
2022-10-17T01:19:37.054Z,17.50
2022-10-17T01:22:10.052Z,17.07
2022-10-17T01:24:48.964Z,17.49
2022-10-17T01:27:42.076Z,17.61
2022-10-17T01:30:38.189Z,17.74
2022-10-17T01:33:10.773Z,17.22
2022-10-17T01:35:42.092Z,17.23
2022-10-17T01:38:12.927Z,17.02
2022-10-17T01:40:45.013Z,17.09
2022-10-17T01:43:17.813Z,16.77
2022-10-17T01:45:50.250Z,17.04
2022-10-17T01:48:22.928Z,17.25
2022-10-17T01:50:53.796Z,17.15
2022-10-17T01:53:25.106Z,16.71
2022-10-17T01:55:55.495Z,16.95
2022-10-17T01:58:26.813Z,17.25
2022-10-17T02:00:56.243Z,17.26
2022-10-17T02:03:27.140Z,17.35
2022-10-17T02:05:55.485Z,17.30
2022-10-17T02:08:27.928Z,16.59
2022-10-17T02:10:59.423Z,16.73
2022-10-17T02:13:34.097Z,16.75
2022-10-17T02:16:19.796Z,16.73
2022-10-17T02:19:07.304Z,16.90
2022-10-17T02:21:41.621Z,16.72
2022-10-17T02:24:18.271Z,16.53
2022-10-17T02:26:51.270Z,16.75
2022-10-17T02:29:21.553Z,16.00
2022-10-17T02:31:53.143Z,15.64
2022-10-17T02:34:26.494Z,15.26
2022-10-17T02:36:57.362Z,16.02
2022-10-17T02:39:26.645Z,15.98
2022-10-17T02:41:55.830Z,16.58
2022-10-17T02:44:24.534Z,16.66
2022-10-17T02:46:56.746Z,16.56
2022-10-17T02:49:29.240Z,16.44
2022-10-17T02:51:59.853Z,16.30
2022-10-17T02:54:29.528Z,15.59
2022-10-17T02:57:01.994Z,15.80
2022-10-17T02:59:31.577Z,16.16
2022-10-17T03:02:04.040Z,16.10
2022-10-17T03:04:34.181Z,16.38
2022-10-17T03:07:02.402Z,16.43
2022-10-17T03:09:30.733Z,16.43
2022-10-17T03:11:58.972Z,16.50
2022-10-17T03:14:27.179Z,16.28
2022-10-17T03:16:55.382Z,16.36
2022-10-17T03:19:23.645Z,15.79
2022-10-17T03:21:53.253Z,15.85
2022-10-17T03:24:21.503Z,15.44
2022-10-17T03:26:49.702Z,15.74
2022-10-17T03:29:17.961Z,15.88
2022-10-17T03:31:46.167Z,16.04
2022-10-17T03:34:16.693Z,15.95
2022-10-17T03:36:44.912Z,15.63
2022-10-17T03:39:14.804Z,16.04
2022-10-17T03:41:43.190Z,16.02
2022-10-17T03:44:11.530Z,16.16
2022-10-17T03:46:40.032Z,15.95
2022-10-17T03:49:09.331Z,16.09
2022-10-17T03:51:37.564Z,15.80
2022-10-17T03:54:06.044Z,15.78
2022-10-17T03:56:35.650Z,15.48
2022-10-17T03:59:04.089Z,15.74
2022-10-17T04:01:32.312Z,15.87
2022-10-17T04:04:00.593Z,15.92
2022-10-17T04:06:28.852Z,15.60
2022-10-17T04:08:57.130Z,15.63
2022-10-17T04:11:25.344Z,15.89
2022-10-17T04:13:55.832Z,15.29
2022-10-17T04:16:24.697Z,15.18
2022-10-17T04:18:55.228Z,14.59
2022-10-17T04:21:24.677Z,14.66
2022-10-17T04:23:56.051Z,15.25
2022-10-17T04:26:24.529Z,15.29
2022-10-17T04:28:52.796Z,15.60
2022-10-17T04:31:22.362Z,15.47
2022-10-17T04:33:51.661Z,15.32
2022-10-17T04:36:20.930Z,15.47
2022-10-17T04:38:49.155Z,15.58
2022-10-17T04:41:19.017Z,15.66
2022-10-17T04:43:50.266Z,15.62
2022-10-17T04:46:19.801Z,15.47
2022-10-17T04:48:49.412Z,15.04
2022-10-17T04:51:21.779Z,14.85
2022-10-17T04:53:52.832Z,15.23
2022-10-17T04:59:09.115Z,15.33
2022-10-17T05:01:37.351Z,15.39
2022-10-17T05:04:06.976Z,15.25
2022-10-17T05:06:35.298Z,15.26
2022-10-17T05:09:03.537Z,15.08
2022-10-17T05:11:31.770Z,15.14
2022-10-17T05:14:01.539Z,14.63
2022-10-17T05:16:30.873Z,14.95
2022-10-17T05:19:00.029Z,14.70
2022-10-17T05:21:30.817Z,15.03
2022-10-17T05:23:59.413Z,14.95
2022-10-17T05:26:27.704Z,15.05
2022-10-17T05:28:56.059Z,14.57
2022-10-17T05:31:24.267Z,14.87
2022-10-17T05:33:52.554Z,14.88
2022-10-17T05:36:20.761Z,15.24
2022-10-17T05:38:51.969Z,15.36
2022-10-17T05:41:20.816Z,15.34
2022-10-17T05:43:50.290Z,14.94
2022-10-17T05:46:18.845Z,13.89
2022-10-17T05:48:47.091Z,14.40
2022-10-17T05:51:15.332Z,14.41
2022-10-17T05:53:43.819Z,14.72
2022-10-17T05:56:14.471Z,14.49
2022-10-17T05:58:52.391Z,13.94
2022-10-17T06:01:21.549Z,14.29
2022-10-17T06:03:49.848Z,14.06
2022-10-17T06:06:19.195Z,14.96
2022-10-17T06:08:47.663Z,14.11
2022-10-17T06:11:17.394Z,14.78
2022-10-17T06:13:45.763Z,14.32
2022-10-17T06:16:14.010Z,14.30
2022-10-17T06:18:42.291Z,13.81
2022-10-17T06:21:12.085Z,13.60
2022-10-17T06:23:40.409Z,14.27
2022-10-17T06:26:08.711Z,15.00
2022-10-17T06:28:38.380Z,15.29
2022-10-17T06:31:07.952Z,15.26
2022-10-17T06:33:36.783Z,14.67
2022-10-17T06:36:05.701Z,14.46
2022-10-17T06:38:35.209Z,14.20
2022-10-17T06:41:08.757Z,14.54
2022-10-17T06:43:38.868Z,15.38
2022-10-17T06:46:07.615Z,15.71
2022-10-17T06:48:35.971Z,15.88
2022-10-17T06:51:05.567Z,16.29
2022-10-17T06:53:35.571Z,16.53
2022-10-17T06:56:04.652Z,16.76
2022-10-17T06:58:34.716Z,16.95
2022-10-17T07:01:06.099Z,17.02
2022-10-17T07:03:35.409Z,17.15
2022-10-17T07:06:03.889Z,17.26
2022-10-17T07:08:33.432Z,17.30
2022-10-17T07:11:10.194Z,17.65
2022-10-17T07:13:39.404Z,17.79
2022-10-17T07:16:09.507Z,17.97
2022-10-17T07:18:38.775Z,17.94
2022-10-17T07:21:08.535Z,18.40
2022-10-17T07:23:37.327Z,18.57
2022-10-17T07:26:07.970Z,18.87
2022-10-17T07:28:36.159Z,19.06
2022-10-17T07:31:05.907Z,19.09
2022-10-17T07:33:35.916Z,19.29
2022-10-17T07:36:05.772Z,19.45
2022-10-17T07:38:34.270Z,19.68
2022-10-17T07:41:04.030Z,19.77
2022-10-17T07:43:32.431Z,19.84
2022-10-17T07:46:02.415Z,19.80
2022-10-17T07:48:30.934Z,20.13
2022-10-17T07:51:03.326Z,20.21
2022-10-17T07:53:31.868Z,20.27
2022-10-17T07:56:00.073Z,19.96
2022-10-17T07:58:28.785Z,20.71
2022-10-17T08:00:57.060Z,20.77
2022-10-17T08:03:25.310Z,21.21
2022-10-17T08:05:53.520Z,21.47
2022-10-17T08:08:23.136Z,21.61
2022-10-17T08:10:51.344Z,20.61
2022-10-17T08:13:19.541Z,21.55
2022-10-17T08:15:48.845Z,20.76
2022-10-17T08:18:17.656Z,20.99
2022-10-17T08:20:46.304Z,22.03
2022-10-17T08:23:14.515Z,20.88
2022-10-17T08:25:44.168Z,21.06
2022-10-17T08:28:12.493Z,21.60
2022-10-17T08:30:40.758Z,22.00
2022-10-17T08:33:08.973Z,22.57
2022-10-17T08:35:37.233Z,22.34
2022-10-17T08:38:05.575Z,22.07
2022-10-17T08:40:35.412Z,21.95
2022-10-17T08:43:15.805Z,21.95
2022-10-17T08:45:47.977Z,22.10
2022-10-17T08:48:18.915Z,22.12
2022-10-17T08:50:50.119Z,22.92
2022-10-17T08:53:21.162Z,23.21
2022-10-17T08:55:51.379Z,23.39
2022-10-17T08:58:23.295Z,23.06
2022-10-17T09:01:01.857Z,23.30
2022-10-17T09:03:40.874Z,23.87
2022-10-17T09:06:16.837Z,23.81
2022-10-17T09:08:52.364Z,24.21
2022-10-17T09:11:32.388Z,24.74
2022-10-17T09:14:12.161Z,23.88
2022-10-17T09:16:52.083Z,24.78
2022-10-17T09:19:22.109Z,24.81
2022-10-17T09:21:53.392Z,24.66
2022-10-17T09:24:25.776Z,24.99
2022-10-17T09:26:54.599Z,25.23
2022-10-17T09:29:27.706Z,25.31
2022-10-17T09:32:03.077Z,25.18
2022-10-17T09:34:34.518Z,25.26
2022-10-17T09:37:03.561Z,25.09
2022-10-17T09:39:33.009Z,25.47
2022-10-17T09:42:02.276Z,25.05
2022-10-17T09:44:33.630Z,25.66
2022-10-17T09:47:27.383Z,25.29
2022-10-17T09:49:55.582Z,25.15
2022-10-17T09:55:18.961Z,25.92
2022-10-17T09:57:56.009Z,25.33
2022-10-17T10:00:28.299Z,25.22
2022-10-17T10:03:17.871Z,25.50
2022-10-17T10:06:02.621Z,24.86
2022-10-17T10:08:32.684Z,25.40
2022-10-17T10:11:07.911Z,25.06
2022-10-17T10:13:38.289Z,25.71
2022-10-17T10:16:24.220Z,25.17
2022-10-17T10:18:52.869Z,25.62
2022-10-17T10:21:22.752Z,25.23
2022-10-17T10:24:13.307Z,25.31
2022-10-17T10:26:42.530Z,25.40
2022-10-17T10:29:23.346Z,25.83
2022-10-17T10:31:53.360Z,25.53
2022-10-17T10:34:25.669Z,26.27
2022-10-17T10:37:00.842Z,26.73
2022-10-17T10:39:38.985Z,26.83
2022-10-17T10:42:10.350Z,27.18
2022-10-17T10:44:40.771Z,26.64
2022-10-17T10:47:21.131Z,26.48
2022-10-17T10:49:51.959Z,27.10
2022-10-17T10:52:30.937Z,27.02
2022-10-17T10:55:05.802Z,27.59
2022-10-17T10:57:36.124Z,27.56
2022-10-17T11:00:06.119Z,28.36
2022-10-17T11:02:39.668Z,28.14
2022-10-17T11:05:13.471Z,27.77
2022-10-17T11:07:44.915Z,26.88
2022-10-17T11:10:16.129Z,28.36
2022-10-17T11:12:47.438Z,28.70
2022-10-17T11:15:22.326Z,28.49
2022-10-17T11:17:58.014Z,28.66
2022-10-17T11:20:31.877Z,28.81
2022-10-17T11:23:06.203Z,28.16
2022-10-17T11:25:35.905Z,28.65
2022-10-17T11:28:06.077Z,28.31
2022-10-17T11:30:41.516Z,28.70
2022-10-17T11:33:13.524Z,28.11
2022-10-17T11:35:43.285Z,29.17
2022-10-17T11:38:17.644Z,28.14
2022-10-17T11:40:47.470Z,27.55
2022-10-17T11:43:18.873Z,28.33
2022-10-17T11:45:49.864Z,28.50
2022-10-17T11:48:22.606Z,28.70
2022-10-17T11:53:54.028Z,28.51
2022-10-17T11:56:26.772Z,29.43
2022-10-17T11:59:01.271Z,29.48
2022-10-17T12:01:35.611Z,28.94
2022-10-17T12:04:17.714Z,28.65
2022-10-17T12:06:57.573Z,29.85
2022-10-17T12:09:33.227Z,30.11
2022-10-17T12:12:03.418Z,30.30
2022-10-17T12:14:43.567Z,30.39
2022-10-17T12:17:29.679Z,30.71
2022-10-17T12:20:28.374Z,30.13
2022-10-17T12:22:58.147Z,29.45
2022-10-17T12:25:30.140Z,29.94
2022-10-17T12:28:20.367Z,30.17
2022-10-17T12:30:53.562Z,30.43
2022-10-17T12:33:23.560Z,29.94
2022-10-17T12:36:29.957Z,30.69
2022-10-17T12:39:31.842Z,31.25
2022-10-17T12:42:00.097Z,30.42
2022-10-17T12:44:38.787Z,31.50
2022-10-17T12:47:36.521Z,31.44
2022-10-17T12:50:05.499Z,31.16
2022-10-17T12:52:59.323Z,30.58
2022-10-17T12:55:27.943Z,30.06
2022-10-17T12:57:58.743Z,30.78
2022-10-17T13:00:33.152Z,29.23
2022-10-17T13:03:08.210Z,29.99
2022-10-17T13:05:39.351Z,29.74
2022-10-17T13:08:17.692Z,29.38
2022-10-17T13:10:51.568Z,29.94
2022-10-17T13:16:08.839Z,29.44
2022-10-17T13:18:37.310Z,30.86
2022-10-17T13:21:07.825Z,30.32
2022-10-17T13:23:38.775Z,30.74
2022-10-17T13:26:13.952Z,29.62
2022-10-17T13:28:42.280Z,31.04
2022-10-17T13:31:29.067Z,30.49
2022-10-17T13:33:58.929Z,30.61
2022-10-17T13:36:28.824Z,30.61
2022-10-17T13:38:58.930Z,30.55
2022-10-17T13:41:37.097Z,30.60
2022-10-17T13:44:11.546Z,30.61
2022-10-17T13:46:40.560Z,30.81
2022-10-17T13:49:20.066Z,30.72
2022-10-17T13:51:51.662Z,30.62
2022-10-17T13:54:33.317Z,30.40
2022-10-17T13:57:02.497Z,31.04
2022-10-17T13:59:35.248Z,30.82
2022-10-17T14:02:03.581Z,30.59
2022-10-17T14:04:44.787Z,31.05
2022-10-17T14:07:25.667Z,31.72
2022-10-17T14:09:55.382Z,31.45
2022-10-17T14:12:23.852Z,31.58
2022-10-17T14:15:10.991Z,31.58
2022-10-17T14:17:40.776Z,31.70
2022-10-17T14:23:21.351Z,31.54
2022-10-17T14:25:49.077Z,31.56
2022-10-17T14:28:18.474Z,31.52
2022-10-17T14:31:02.710Z,32.10
2022-10-17T14:33:32.600Z,30.92
2022-10-17T14:36:02.471Z,31.68
2022-10-17T14:38:31.279Z,31.82
2022-10-17T14:41:44.612Z,31.55
2022-10-17T14:43:55.915Z,31.90
2022-10-17T14:46:24.468Z,31.66
2022-10-17T14:48:55.075Z,31.79
2022-10-17T14:51:23.866Z,31.29
2022-10-17T14:54:05.620Z,31.51
2022-10-17T14:56:41.784Z,31.77
2022-10-17T14:59:12.623Z,31.35
2022-10-17T15:01:46.595Z,31.64
2022-10-17T15:04:15.231Z,31.30
2022-10-17T15:06:43.656Z,31.21
2022-10-17T15:09:12.119Z,31.08
2022-10-17T15:11:41.909Z,30.79
2022-10-17T15:14:10.422Z,30.60
2022-10-17T15:16:39.440Z,30.79
2022-10-17T15:19:07.828Z,30.64
2022-10-17T15:21:42.094Z,30.87
2022-10-17T15:24:15.925Z,30.54
2022-10-17T15:26:45.608Z,30.60
2022-10-17T15:29:16.036Z,30.55
2022-10-17T15:31:44.568Z,30.36
2022-10-17T15:34:13.027Z,30.35
2022-10-17T15:36:42.627Z,30.28
2022-10-17T15:39:11.274Z,30.08
2022-10-17T15:41:39.583Z,29.94
2022-10-17T15:44:09.300Z,29.80
2022-10-17T15:46:37.652Z,29.85
2022-10-17T15:49:07.649Z,29.80
2022-10-17T15:51:35.959Z,29.59
2022-10-17T15:54:05.197Z,29.44
2022-10-17T15:56:36.261Z,29.09
2022-10-17T15:59:05.403Z,29.06
2022-10-17T16:01:35.422Z,28.81
2022-10-17T16:04:03.994Z,28.75
2022-10-17T16:06:32.259Z,28.54
2022-10-17T16:09:00.603Z,28.47
2022-10-17T16:11:31.967Z,28.42
2022-10-17T16:14:03.019Z,28.32
2022-10-17T16:16:31.800Z,28.24
2022-10-17T16:19:02.353Z,28.11
2022-10-17T16:21:33.885Z,27.96
2022-10-17T16:24:02.892Z,27.74
2022-10-17T16:26:31.201Z,27.53
2022-10-17T16:29:02.891Z,27.25
2022-10-17T16:31:33.081Z,27.06
2022-10-17T16:34:04.520Z,27.02
2022-10-17T16:36:32.766Z,26.80
2022-10-17T16:39:01.122Z,26.65
2022-10-17T16:41:31.265Z,26.59
2022-10-17T16:44:02.207Z,26.48
2022-10-17T16:46:31.832Z,26.30
2022-10-17T16:49:00.470Z,26.09
2022-10-17T16:51:31.273Z,25.97
2022-10-17T16:54:00.278Z,25.79
2022-10-17T16:56:32.645Z,25.67
2022-10-17T16:59:01.587Z,25.61
2022-10-17T17:01:30.338Z,25.47
2022-10-17T17:03:58.634Z,25.40
2022-10-17T17:06:28.158Z,25.34
2022-10-17T17:08:58.611Z,25.31
2022-10-17T17:11:27.879Z,25.28
2022-10-17T17:13:56.702Z,25.08
2022-10-17T17:16:28.622Z,25.02
2022-10-17T17:18:58.018Z,24.97
2022-10-17T17:21:26.990Z,24.77
2022-10-17T17:23:58.361Z,24.48
2022-10-17T17:26:28.221Z,23.82
2022-10-17T17:28:58.797Z,24.11
2022-10-17T17:31:29.726Z,23.78
2022-10-17T17:33:58.332Z,23.83
2022-10-17T17:36:28.038Z,23.91
2022-10-17T17:38:59.654Z,23.18
2022-10-17T17:41:28.265Z,23.32
2022-10-17T17:43:57.105Z,23.25
2022-10-17T17:46:25.926Z,23.37
2022-10-17T17:48:55.246Z,23.40
2022-10-17T17:51:28.286Z,23.36
2022-10-17T17:53:59.077Z,23.41
2022-10-17T17:56:29.808Z,23.41
2022-10-17T17:58:59.592Z,23.39
2022-10-17T18:01:30.399Z,23.31
2022-10-17T18:04:00.274Z,23.31
2022-10-17T18:06:29.399Z,23.11
2022-10-17T18:08:59.951Z,23.12
2022-10-17T18:11:28.160Z,22.72
2022-10-17T18:13:57.014Z,22.56
2022-10-17T18:16:25.496Z,22.81
2022-10-17T18:18:53.854Z,22.63
2022-10-17T18:21:22.517Z,22.72
2022-10-17T18:23:53.070Z,22.69
2022-10-17T18:26:23.207Z,22.79
2022-10-17T18:28:51.879Z,22.64
2022-10-17T18:31:24.639Z,22.64
2022-10-17T18:33:53.807Z,22.57
2022-10-17T18:36:22.964Z,21.90
2022-10-17T18:38:51.215Z,22.16
2022-10-17T18:41:22.943Z,21.99
2022-10-17T18:43:52.530Z,22.12
2022-10-17T18:46:22.454Z,22.17
2022-10-17T18:48:51.677Z,22.13
2022-10-17T18:51:22.227Z,22.02
2022-10-17T18:53:51.081Z,21.54
2022-10-17T18:56:19.828Z,21.58
2022-10-17T18:58:49.537Z,21.75
2022-10-17T19:01:19.811Z,21.79
2022-10-17T19:03:49.535Z,21.55
2022-10-17T19:06:19.891Z,20.75
2022-10-17T19:08:48.878Z,21.24
2022-10-17T19:11:20.184Z,20.99
2022-10-17T19:13:50.742Z,20.81
2022-10-17T19:16:19.594Z,20.44
2022-10-17T19:18:51.122Z,21.01
2022-10-17T19:21:21.947Z,21.17
2022-10-17T19:23:52.238Z,21.12
2022-10-17T19:26:21.094Z,21.10
2022-10-17T19:28:52.235Z,21.01
2022-10-17T19:31:26.284Z,20.98
2022-10-17T19:33:55.569Z,21.00
2022-10-17T19:36:28.834Z,20.96
2022-10-17T19:39:01.293Z,20.86
2022-10-17T19:41:29.821Z,20.99
2022-10-17T19:43:59.503Z,20.93
2022-10-17T19:46:28.963Z,20.93
2022-10-17T19:48:57.959Z,20.85
2022-10-17T19:51:27.020Z,20.79
2022-10-17T19:53:56.711Z,20.76
2022-10-17T19:56:25.857Z,20.71
2022-10-17T19:58:55.576Z,20.68
2022-10-17T20:01:27.089Z,20.72
2022-10-17T20:03:55.891Z,20.69
2022-10-17T20:06:24.449Z,20.52
2022-10-17T20:08:53.086Z,20.50
2022-10-17T20:11:22.654Z,19.80
2022-10-17T20:13:51.552Z,19.88
2022-10-17T20:16:21.625Z,20.22
2022-10-17T20:18:52.499Z,20.23
2022-10-17T20:21:23.556Z,20.24
2022-10-17T20:23:52.094Z,20.20
2022-10-17T20:26:37.165Z,20.21
2022-10-17T20:29:10.934Z,19.92
2022-10-17T20:34:27.966Z,20.16
2022-10-17T20:36:56.218Z,20.13
2022-10-17T20:39:24.585Z,20.14
2022-10-17T20:41:53.174Z,19.96
2022-10-17T20:44:21.542Z,20.09
2022-10-17T20:47:01.104Z,20.06
2022-10-17T20:49:32.282Z,19.95
2022-10-17T20:52:00.761Z,20.02
2022-10-17T20:54:29.719Z,20.02
2022-10-17T20:57:01.097Z,19.98
2022-10-17T20:59:32.495Z,19.95
2022-10-17T21:02:01.185Z,19.88
2022-10-17T21:04:45.831Z,19.88
2022-10-17T21:07:15.217Z,19.84
2022-10-17T21:09:43.557Z,19.58
2022-10-17T21:12:15.211Z,19.70
2022-10-17T21:14:50.415Z,19.50
2022-10-17T21:17:18.741Z,19.37
2022-10-17T21:19:48.730Z,19.64
2022-10-17T21:22:17.169Z,19.63
2022-10-17T21:24:45.582Z,19.37
2022-10-17T21:27:16.196Z,19.38
2022-10-17T21:29:44.455Z,19.39
2022-10-17T21:32:25.142Z,18.48
2022-10-17T21:35:02.662Z,18.13
2022-10-17T21:37:30.938Z,17.98
2022-10-17T21:39:59.211Z,18.71
2022-10-17T21:42:27.534Z,18.42
2022-10-17T21:44:55.948Z,18.71
2022-10-17T21:47:27.536Z,18.94
2022-10-17T21:49:56.170Z,18.95
2022-10-17T21:52:25.865Z,19.00
2022-10-17T21:54:54.139Z,18.92
2022-10-17T21:57:22.484Z,18.92
2022-10-17T21:59:50.713Z,18.90
2022-10-17T22:02:19.292Z,18.58
2022-10-17T22:04:47.659Z,18.53
2022-10-17T22:07:15.926Z,18.30
2022-10-17T22:09:45.631Z,18.72
2022-10-17T22:12:13.864Z,18.59
2022-10-17T22:14:42.518Z,18.48
2022-10-17T22:17:10.850Z,18.49
2022-10-17T22:19:39.104Z,18.37
2022-10-17T22:22:07.346Z,18.18
2022-10-17T22:24:35.918Z,18.05
2022-10-17T22:27:06.165Z,18.38
2022-10-17T22:29:34.584Z,17.41
2022-10-17T22:32:03.007Z,17.84
2022-10-17T22:34:31.297Z,17.89
2022-10-17T22:36:59.573Z,17.83
2022-10-17T22:39:27.965Z,18.06
2022-10-17T22:41:57.313Z,17.79
2022-10-17T22:44:27.079Z,17.84
2022-10-17T22:46:55.396Z,18.01
2022-10-17T22:49:23.812Z,18.23
2022-10-17T22:51:52.132Z,18.20
2022-10-17T22:54:20.457Z,18.22
2022-10-17T22:56:48.696Z,18.23
2022-10-17T22:59:17.011Z,17.93
2022-10-17T23:01:46.679Z,18.29
2022-10-17T23:04:14.931Z,18.23
2022-10-17T23:06:43.160Z,18.27
2022-10-17T23:09:13.144Z,18.25
2022-10-17T23:11:41.365Z,18.36
2022-10-17T23:14:09.605Z,18.21
2022-10-17T23:16:37.799Z,18.03
2022-10-17T23:19:07.360Z,17.63
2022-10-17T23:21:35.582Z,17.95
2022-10-17T23:24:03.785Z,18.00
2022-10-17T23:26:32.077Z,18.15
2022-10-17T23:29:00.481Z,18.17
2022-10-17T23:31:28.805Z,18.23
2022-10-17T23:33:57.084Z,18.25
2022-10-17T23:36:26.849Z,18.19
2022-10-17T23:38:57.841Z,18.13
2022-10-17T23:41:26.899Z,18.16
2022-10-17T23:43:55.080Z,18.10
2022-10-17T23:46:23.293Z,18.08
2022-10-17T23:48:51.940Z,18.01
2022-10-17T23:51:20.172Z,17.70
2022-10-17T23:53:49.873Z,17.88
2022-10-17T23:56:18.444Z,18.14
2022-10-17T23:58:46.816Z,18.18
